Time;durP1;ratioP1;P1;durP2;ratioP2;P2;SDS_P1;SDS_P2;PMS_P1;PMS_P2;Temp;Humidity;BMP_temperature;BMP_pressure;BME280_temperature;BME280_humidity;BME280_pressure;Samples;Min_cycle;Max_cycle;Signal;HPM_P1;HPM_P2
2023/03/13 00:00:17;;;;;;;18.37;5.37;;;;;;;;;;5072823;28;20256;-59
2023/03/13 00:02:44;;;;;;;23.03;6.07;;;;;;;;;;5072814;28;20242;-59
2023/03/13 00:05:11;;;;;;;23.73;5.70;;;;;;;;;;5072394;28;20232;-59
2023/03/13 00:07:37;;;;;;;25.17;6.70;;;;;;;;;;5072915;28;20230;-56
2023/03/13 00:10:04;;;;;;;18.97;5.70;;;;;;;;;;5072669;28;20359;-59
2023/03/13 00:12:30;;;;;;;17.93;5.87;;;;;;;;;;5072748;28;20195;-59
2023/03/13 00:14:56;;;;;;;21.13;5.20;;;;;;;;;;5072422;28;20202;-59
2023/03/13 00:17:22;;;;;;;21.53;5.63;;;;;;;;;;5072307;28;20260;-59
2023/03/13 00:19:48;;;;;;;24.73;5.40;;;;;;;;;;5072064;28;20218;-59
2023/03/13 00:22:15;;;;;;;26.90;6.17;;;;;;;;;;5072213;28;20301;-59
2023/03/13 00:24:41;;;;;;;24.87;5.87;;;;;;;;;;5070201;28;20315;-59
2023/03/13 00:27:07;;;;;;;26.13;6.00;;;;;;;;;;5071969;28;20642;-60
2023/03/13 00:29:33;;;;;;;22.80;6.20;;;;;;;;;;5071522;28;20206;-60
2023/03/13 00:32:00;;;;;;;19.87;4.87;;;;;;;;;;5071365;28;20241;-60
2023/03/13 00:34:26;;;;;;;27.60;6.23;;;;;;;;;;5071836;28;20673;-60
2023/03/13 00:36:53;;;;;;;19.80;5.20;;;;;;;;;;5071560;28;20199;-59
2023/03/13 00:39:21;;;;;;;22.30;6.27;;;;;;;;;;5071808;28;20215;-60
2023/03/13 00:41:47;;;;;;;18.73;5.23;;;;;;;;;;5071369;28;20318;-59
2023/03/13 00:44:13;;;;;;;23.53;5.90;;;;;;;;;;5071213;28;20239;-59
2023/03/13 00:46:39;;;;;;;25.70;5.97;;;;;;;;;;5069689;28;20210;-57
2023/03/13 00:49:06;;;;;;;22.70;5.20;;;;;;;;;;5069623;28;20203;-59
2023/03/13 00:51:31;;;;;;;16.17;5.60;;;;;;;;;;5069691;28;20287;-59
2023/03/13 00:54:01;;;;;;;17.97;5.30;;;;;;;;;;5071489;28;20294;-59
2023/03/13 00:56:28;;;;;;;17.03;5.43;;;;;;;;;;5071598;28;20195;-61
2023/03/13 00:58:55;;;;;;;22.83;5.37;;;;;;;;;;5071427;28;20210;-60
2023/03/13 01:01:22;;;;;;;16.97;4.50;;;;;;;;;;5071527;28;20289;-61
2023/03/13 01:03:49;;;;;;;17.83;5.60;;;;;;;;;;5071204;28;20715;-66
2023/03/13 01:06:17;;;;;;;22.47;5.07;;;;;;;;;;5071271;28;20196;-63
2023/03/13 01:08:43;;;;;;;20.47;5.27;;;;;;;;;;5071307;28;20207;-63
2023/03/13 01:11:10;;;;;;;21.67;5.53;;;;;;;;;;5071359;28;20196;-63
2023/03/13 01:13:37;;;;;;;21.70;4.73;;;;;;;;;;5071477;28;20611;-63
2023/03/13 01:16:04;;;;;;;21.53;5.40;;;;;;;;;;5071094;28;20627;-63
2023/03/13 01:18:30;;;;;;;19.93;5.27;;;;;;;;;;5071437;28;20195;-63
2023/03/13 01:20:56;;;;;;;19.23;4.83;;;;;;;;;;5071110;28;20249;-63
2023/03/13 01:23:22;;;;;;;20.07;5.30;;;;;;;;;;5071223;28;20220;-63
2023/03/13 01:25:48;;;;;;;17.60;4.93;;;;;;;;;;5070247;28;20202;-63
2023/03/13 01:28:14;;;;;;;19.27;5.13;;;;;;;;;;5070171;28;20195;-64
2023/03/13 01:30:42;;;;;;;21.43;5.17;;;;;;;;;;5070183;28;20203;-63
2023/03/13 01:33:08;;;;;;;19.53;5.13;;;;;;;;;;5070426;28;20234;-63
2023/03/13 01:35:34;;;;;;;17.83;4.67;;;;;;;;;;5070675;28;20200;-61
2023/03/13 01:38:00;;;;;;;21.17;5.70;;;;;;;;;;5071035;28;20195;-61
2023/03/13 01:40:26;;;;;;;20.63;5.07;;;;;;;;;;5070224;28;20726;-60
2023/03/13 01:42:52;;;;;;;15.17;5.07;;;;;;;;;;5070175;28;20237;-60
2023/03/13 01:45:37;;;;;;;13.93;5.03;;;;;;;;;;5074018;28;20232;-60
2023/03/13 01:48:05;;;;;;;14.57;4.30;;;;;;;;;;5074102;28;20653;-60
2023/03/13 01:50:31;;;;;;;28.73;5.57;;;;;;;;;;5074266;28;20257;-62
2023/03/13 01:52:57;;;;;;;18.03;4.97;;;;;;;;;;5073603;28;20199;-61
2023/03/13 01:55:23;;;;;;;19.97;4.90;;;;;;;;;;5075034;28;20191;-60
2023/03/13 01:57:50;;;;;;;19.90;5.07;;;;;;;;;;5074853;28;20195;-60
2023/03/13 02:00:19;;;;;;;17.27;5.10;;;;;;;;;;5074741;28;20235;-60
2023/03/13 02:02:46;;;;;;;22.20;5.60;;;;;;;;;;5074814;28;20199;-60
2023/03/13 02:05:14;;;;;;;20.20;5.37;;;;;;;;;;5074471;28;20231;-60
2023/03/13 02:07:42;;;;;;;17.73;4.97;;;;;;;;;;5074883;28;20208;-62
2023/03/13 02:10:11;;;;;;;17.73;4.70;;;;;;;;;;5074694;28;20210;-60
2023/03/13 02:12:38;;;;;;;17.30;4.97;;;;;;;;;;5074728;28;20658;-59
2023/03/13 02:15:06;;;;;;;16.83;4.43;;;;;;;;;;5074551;28;20195;-60
2023/03/13 02:17:33;;;;;;;18.07;4.67;;;;;;;;;;5074511;28;20715;-60
2023/03/13 02:19:59;;;;;;;20.00;5.03;;;;;;;;;;5074564;28;20191;-59
2023/03/13 02:22:29;;;;;;;19.53;4.77;;;;;;;;;;5074616;28;20291;-59
2023/03/13 02:24:58;;;;;;;18.07;4.93;;;;;;;;;;5074359;28;20277;-59
2023/03/13 02:27:26;;;;;;;15.93;4.47;;;;;;;;;;5072201;28;20669;-59
2023/03/13 02:29:52;;;;;;;16.90;4.63;;;;;;;;;;5073950;28;20243;-60
2023/03/13 02:32:18;;;;;;;19.10;5.50;;;;;;;;;;5073965;28;20208;-60
2023/03/13 02:34:45;;;;;;;21.93;5.93;;;;;;;;;;5073933;28;20625;-60
2023/03/13 02:37:12;;;;;;;18.90;4.57;;;;;;;;;;5073903;28;20662;-60
2023/03/13 02:39:41;;;;;;;16.63;4.93;;;;;;;;;;5074425;28;20625;-60
2023/03/13 02:42:07;;;;;;;14.87;4.47;;;;;;;;;;5074220;28;20368;-60
2023/03/13 02:44:38;;;;;;;18.30;4.57;;;;;;;;;;5073692;28;20591;-60
2023/03/13 02:47:04;;;;;;;18.87;4.80;;;;;;;;;;5073958;28;20653;-60
2023/03/13 02:49:30;;;;;;;16.33;4.23;;;;;;;;;;5074103;28;20200;-59
2023/03/13 02:51:58;;;;;;;20.80;4.80;;;;;;;;;;5073954;28;20266;-59
2023/03/13 02:54:25;;;;;;;17.80;5.50;;;;;;;;;;5073049;28;20717;-61
2023/03/13 02:56:55;;;;;;;18.70;5.07;;;;;;;;;;5073376;28;20662;-60
2023/03/13 02:59:21;;;;;;;20.87;4.73;;;;;;;;;;5073687;28;20812;-60
2023/03/13 03:01:51;;;;;;;23.40;4.77;;;;;;;;;;5073787;28;20286;-60
2023/03/13 03:04:17;;;;;;;17.40;4.70;;;;;;;;;;5073575;28;20657;-60
2023/03/13 03:06:43;;;;;;;18.73;4.87;;;;;;;;;;5073764;28;20770;-60
2023/03/13 03:09:09;;;;;;;15.80;4.03;;;;;;;;;;5073792;28;20203;-60
2023/03/13 03:11:35;;;;;;;18.37;4.43;;;;;;;;;;5073630;28;20198;-60
2023/03/13 03:14:01;;;;;;;20.83;4.73;;;;;;;;;;5073396;28;20827;-60
2023/03/13 03:16:27;;;;;;;20.30;5.43;;;;;;;;;;5073577;28;20606;-60
2023/03/13 03:18:54;;;;;;;16.23;4.60;;;;;;;;;;5073505;28;20726;-60
2023/03/13 03:21:22;;;;;;;16.27;4.37;;;;;;;;;;5073425;28;20657;-60
2023/03/13 03:23:49;;;;;;;22.17;4.90;;;;;;;;;;5073352;28;20298;-60
2023/03/13 03:26:15;;;;;;;16.00;4.73;;;;;;;;;;5073138;28;20704;-57
2023/03/13 03:28:41;;;;;;;24.07;5.77;;;;;;;;;;5073308;28;20294;-60
2023/03/13 03:31:08;;;;;;;19.40;4.93;;;;;;;;;;5073105;28;20227;-60
2023/03/13 03:33:34;;;;;;;23.57;4.80;;;;;;;;;;5073180;28;20199;-61
2023/03/13 03:36:02;;;;;;;15.90;5.30;;;;;;;;;;5072983;28;20905;-60
2023/03/13 03:38:28;;;;;;;24.77;5.17;;;;;;;;;;5073005;28;20681;-62
2023/03/13 03:40:54;;;;;;;19.77;5.47;;;;;;;;;;5073062;28;20676;-60
2023/03/13 03:43:20;;;;;;;16.43;4.20;;;;;;;;;;5072202;28;20211;-59
2023/03/13 03:45:46;;;;;;;19.63;4.90;;;;;;;;;;5072925;28;20695;-60
2023/03/13 03:48:12;;;;;;;16.77;4.20;;;;;;;;;;5072669;28;20253;-60
2023/03/13 03:50:38;;;;;;;18.03;4.43;;;;;;;;;;5073070;28;20226;-60
2023/03/13 03:53:06;;;;;;;17.23;4.33;;;;;;;;;;5072661;28;20211;-59
2023/03/13 03:55:33;;;;;;;17.73;4.30;;;;;;;;;;5072817;28;20249;-60
2023/03/13 03:57:59;;;;;;;17.67;4.50;;;;;;;;;;5072538;28;20218;-60
2023/03/13 04:00:26;;;;;;;19.90;4.83;;;;;;;;;;5072835;28;20199;-60
2023/03/13 04:02:52;;;;;;;18.20;5.10;;;;;;;;;;5072724;28;20196;-59
2023/03/13 04:05:18;;;;;;;11.77;3.93;;;;;;;;;;5072376;28;20227;-57
2023/03/13 04:07:45;;;;;;;17.97;4.40;;;;;;;;;;5071993;28;20294;-60
2023/03/13 04:10:12;;;;;;;13.57;4.47;;;;;;;;;;5072504;28;20207;-58
2023/03/13 04:12:39;;;;;;;19.90;4.43;;;;;;;;;;5072411;28;20286;-58
2023/03/13 04:15:05;;;;;;;23.20;6.23;;;;;;;;;;5072125;28;20191;-58
2023/03/13 04:17:31;;;;;;;23.40;5.23;;;;;;;;;;5072169;28;20230;-58
2023/03/13 04:19:57;;;;;;;15.77;4.57;;;;;;;;;;5072136;28;20203;-58
2023/03/13 04:22:23;;;;;;;15.73;4.73;;;;;;;;;;5072048;28;20207;-59
2023/03/13 04:24:49;;;;;;;19.80;4.77;;;;;;;;;;5071973;28;20735;-59
2023/03/13 04:27:16;;;;;;;17.57;4.27;;;;;;;;;;5071839;28;20290;-59
2023/03/13 04:29:42;;;;;;;16.60;3.90;;;;;;;;;;5071935;28;20249;-59
2023/03/13 04:32:08;;;;;;;20.60;4.93;;;;;;;;;;5071787;28;20200;-59
2023/03/13 04:34:34;;;;;;;20.87;5.13;;;;;;;;;;5071888;28;20227;-59
2023/03/13 04:37:00;;;;;;;18.63;4.87;;;;;;;;;;5071741;28;20225;-59
2023/03/13 04:39:26;;;;;;;15.93;5.03;;;;;;;;;;5071787;28;20195;-59
2023/03/13 04:41:52;;;;;;;20.10;4.63;;;;;;;;;;5071838;28;20269;-58
2023/03/13 04:44:20;;;;;;;20.07;5.27;;;;;;;;;;5071376;28;20235;-58
2023/03/13 04:46:46;;;;;;;15.50;3.93;;;;;;;;;;5071597;28;20195;-59
2023/03/13 04:49:13;;;;;;;16.20;4.87;;;;;;;;;;5071572;28;20253;-58
2023/03/13 04:51:39;;;;;;;12.13;4.13;;;;;;;;;;5071825;28;20199;-58
2023/03/13 04:54:05;;;;;;;17.70;5.13;;;;;;;;;;5070953;28;20195;-58
2023/03/13 04:56:31;;;;;;;15.50;4.20;;;;;;;;;;5071256;28;20199;-57
2023/03/13 04:58:57;;;;;;;16.30;4.20;;;;;;;;;;5071385;28;20191;-58
2023/03/13 05:01:24;;;;;;;17.17;4.53;;;;;;;;;;5071424;28;20231;-58
2023/03/13 05:03:50;;;;;;;14.17;4.27;;;;;;;;;;5071324;28;20621;-57
2023/03/13 05:06:16;;;;;;;12.97;4.23;;;;;;;;;;5071294;28;20210;-57
2023/03/13 05:08:42;;;;;;;15.57;4.40;;;;;;;;;;5071423;28;20203;-57
2023/03/13 05:11:08;;;;;;;12.40;4.53;;;;;;;;;;5071299;28;20294;-57
2023/03/13 05:13:35;;;;;;;12.00;3.83;;;;;;;;;;5071221;28;20294;-58
2023/03/13 05:16:01;;;;;;;11.83;3.80;;;;;;;;;;5071087;28;20787;-57
2023/03/13 05:18:28;;;;;;;12.63;3.50;;;;;;;;;;5070495;28;20192;-58
2023/03/13 05:20:54;;;;;;;16.10;4.87;;;;;;;;;;5071674;28;20270;-57
2023/03/13 05:23:20;;;;;;;6.80;3.23;;;;;;;;;;5071157;28;20680;-58
2023/03/13 05:25:46;;;;;;;9.87;3.60;;;;;;;;;;5071306;28;20195;-58
2023/03/13 05:28:12;;;;;;;14.63;3.80;;;;;;;;;;5071029;28;20199;-58
2023/03/13 05:30:38;;;;;;;14.17;3.50;;;;;;;;;;5071322;28;20191;-58
2023/03/13 05:33:04;;;;;;;11.27;3.60;;;;;;;;;;5071275;28;20637;-58
2023/03/13 05:35:31;;;;;;;11.37;3.53;;;;;;;;;;5071056;28;20206;-60
2023/03/13 05:37:57;;;;;;;9.53;3.60;;;;;;;;;;5071102;28;20609;-58
2023/03/13 05:40:23;;;;;;;10.63;3.60;;;;;;;;;;5071202;28;20199;-57
2023/03/13 05:42:49;;;;;;;9.17;3.40;;;;;;;;;;5070878;28;20309;-58
2023/03/13 05:45:15;;;;;;;11.67;3.43;;;;;;;;;;5070624;28;20265;-58
2023/03/13 05:47:41;;;;;;;8.30;3.50;;;;;;;;;;5071212;28;20195;-58
2023/03/13 05:50:08;;;;;;;8.40;3.23;;;;;;;;;;5071057;28;20199;-59
2023/03/13 05:52:35;;;;;;;10.50;3.57;;;;;;;;;;5071112;28;20214;-58
2023/03/13 05:55:01;;;;;;;8.90;3.60;;;;;;;;;;5070801;28;20573;-59
2023/03/13 05:57:27;;;;;;;8.40;3.53;;;;;;;;;;5070825;28;20203;-59
2023/03/13 05:59:53;;;;;;;10.93;3.80;;;;;;;;;;5071009;28;20200;-59
2023/03/13 06:02:19;;;;;;;9.53;3.60;;;;;;;;;;5070828;28;20657;-59
2023/03/13 06:04:45;;;;;;;9.10;3.57;;;;;;;;;;5070690;28;20230;-59
2023/03/13 06:07:11;;;;;;;9.83;3.80;;;;;;;;;;5070794;28;20199;-60
2023/03/13 06:09:39;;;;;;;9.20;3.50;;;;;;;;;;5070843;28;20291;-60
2023/03/13 06:12:06;;;;;;;9.53;3.33;;;;;;;;;;5070612;28;20259;-60
2023/03/13 06:14:32;;;;;;;8.07;3.67;;;;;;;;;;5070521;28;20269;-59
2023/03/13 06:16:58;;;;;;;6.80;3.20;;;;;;;;;;5070166;28;20195;-59
2023/03/13 06:19:24;;;;;;;7.10;3.57;;;;;;;;;;5070619;28;20191;-60
2023/03/13 06:21:50;;;;;;;7.27;3.37;;;;;;;;;;5069801;28;20195;-61
2023/03/13 06:24:16;;;;;;;8.73;3.20;;;;;;;;;;5070432;28;20223;-59
2023/03/13 06:26:43;;;;;;;7.57;3.70;;;;;;;;;;5070564;28;20210;-60
2023/03/13 06:29:10;;;;;;;6.67;3.60;;;;;;;;;;5071000;28;20275;-60
2023/03/13 06:31:36;;;;;;;6.77;3.27;;;;;;;;;;5074492;28;20192;-60
2023/03/13 06:34:02;;;;;;;5.17;3.63;;;;;;;;;;5073643;28;20822;-61
2023/03/13 06:36:28;;;;;;;6.50;3.40;;;;;;;;;;5073792;28;20204;-60
2023/03/13 06:38:54;;;;;;;6.50;3.60;;;;;;;;;;5074129;28;20199;-61
2023/03/13 06:41:20;;;;;;;8.27;4.40;;;;;;;;;;5073993;28;20666;-61
2023/03/13 06:43:47;;;;;;;6.50;3.53;;;;;;;;;;5073601;28;20247;-60
2023/03/13 06:46:16;;;;;;;6.57;3.93;;;;;;;;;;5073729;28;20203;-60
2023/03/13 06:48:43;;;;;;;6.97;4.10;;;;;;;;;;5073659;28;20325;-60
2023/03/13 06:51:10;;;;;;;5.10;4.40;;;;;;;;;;5055695;28;20676;-60
2023/03/13 06:53:36;;;;;;;5.37;4.30;;;;;;;;;;5073899;28;20246;-61
2023/03/13 06:56:03;;;;;;;7.33;4.40;;;;;;;;;;5073797;28;20661;-60
2023/03/13 06:58:28;;;;;;;6.50;5.00;;;;;;;;;;5073724;28;20195;-61
2023/03/13 07:00:56;;;;;;;5.13;4.33;;;;;;;;;;5073906;28;20200;-60
2023/03/13 07:03:23;;;;;;;5.73;4.90;;;;;;;;;;5073670;28;20673;-60
2023/03/13 07:05:49;;;;;;;5.50;5.00;;;;;;;;;;5073390;28;20705;-60
2023/03/13 07:08:15;;;;;;;8.67;6.10;;;;;;;;;;5073462;28;20236;-60
2023/03/13 07:10:42;;;;;;;5.37;4.70;;;;;;;;;;5073548;28;20195;-60
2023/03/13 07:13:08;;;;;;;5.30;4.80;;;;;;;;;;5073436;28;20212;-60
2023/03/13 07:15:34;;;;;;;6.00;4.67;;;;;;;;;;5073446;28;20195;-61
2023/03/13 07:18:01;;;;;;;8.27;4.50;;;;;;;;;;5073363;28;20198;-60
2023/03/13 07:20:27;;;;;;;4.80;4.40;;;;;;;;;;5073240;28;20214;-60
2023/03/13 07:22:53;;;;;;;5.67;4.37;;;;;;;;;;5073542;28;20199;-61
2023/03/13 07:25:19;;;;;;;4.67;4.20;;;;;;;;;;5073188;28;20262;-60
2023/03/13 07:27:45;;;;;;;4.93;4.17;;;;;;;;;;5073182;28;20203;-63
2023/03/13 07:30:11;;;;;;;5.00;4.50;;;;;;;;;;5073186;28;20202;-61
2023/03/13 07:32:37;;;;;;;4.57;4.27;;;;;;;;;;5073211;28;20226;-61
2023/03/13 07:35:05;;;;;;;4.50;4.07;;;;;;;;;;5072915;28;20188;-61
2023/03/13 07:37:31;;;;;;;4.53;3.70;;;;;;;;;;5072926;28;20204;-61
2023/03/13 07:39:57;;;;;;;4.47;4.10;;;;;;;;;;5072938;28;20249;-61
2023/03/13 07:42:23;;;;;;;5.03;3.97;;;;;;;;;;5072161;28;20302;-60
2023/03/13 07:44:49;;;;;;;5.03;4.60;;;;;;;;;;5072632;28;20731;-62
2023/03/13 07:47:15;;;;;;;4.53;3.60;;;;;;;;;;5072673;28;20203;-61
2023/03/13 07:49:42;;;;;;;4.33;3.93;;;;;;;;;;5072852;28;20203;-61
2023/03/13 07:52:10;;;;;;;4.17;3.77;;;;;;;;;;5072920;28;20207;-61
2023/03/13 07:54:36;;;;;;;4.10;3.70;;;;;;;;;;5072768;28;20191;-61
2023/03/13 07:57:02;;;;;;;4.00;3.70;;;;;;;;;;5072540;28;20280;-58
2023/03/13 07:59:28;;;;;;;4.50;4.10;;;;;;;;;;5072792;28;20206;-58
2023/03/13 08:01:54;;;;;;;4.83;4.40;;;;;;;;;;5072668;28;20249;-60
2023/03/13 08:04:20;;;;;;;6.43;4.83;;;;;;;;;;5072413;28;20624;-59
2023/03/13 08:06:46;;;;;;;4.80;4.40;;;;;;;;;;5072459;28;20203;-57
2023/03/13 08:09:13;;;;;;;6.07;5.27;;;;;;;;;;5072456;28;20197;-55
2023/03/13 08:11:40;;;;;;;6.17;5.40;;;;;;;;;;5072656;28;20203;-60
2023/03/13 08:14:06;;;;;;;7.10;5.70;;;;;;;;;;5072212;28;20215;-61
2023/03/13 08:16:33;;;;;;;6.67;5.60;;;;;;;;;;5072141;28;20191;-59
2023/03/13 08:18:59;;;;;;;5.67;4.80;;;;;;;;;;5072209;28;20191;-57
2023/03/13 08:21:26;;;;;;;6.30;5.67;;;;;;;;;;5072445;28;20191;-58
2023/03/13 08:23:53;;;;;;;5.93;5.43;;;;;;;;;;5072378;28;20191;-58
2023/03/13 08:26:21;;;;;;;5.77;5.27;;;;;;;;;;5072348;28;20292;-58
2023/03/13 08:28:51;;;;;;;5.63;5.23;;;;;;;;;;5070334;28;20615;-59
2023/03/13 08:31:18;;;;;;;5.47;4.97;;;;;;;;;;5069735;28;20275;-58
2023/03/13 08:33:44;;;;;;;11.17;10.07;;;;;;;;;;5072086;28;20311;-58
2023/03/13 08:36:11;;;;;;;6.03;5.53;;;;;;;;;;5071957;28;20199;-59
2023/03/13 08:38:37;;;;;;;5.77;5.27;;;;;;;;;;5072375;28;20275;-58
2023/03/13 08:41:04;;;;;;;6.40;5.80;;;;;;;;;;5072029;28;20196;-58
2023/03/13 08:43:31;;;;;;;7.27;6.33;;;;;;;;;;5071747;28;20273;-58
2023/03/13 08:45:57;;;;;;;6.70;6.10;;;;;;;;;;5072075;28;20257;-58
2023/03/13 08:48:23;;;;;;;7.10;6.40;;;;;;;;;;5071952;28;20204;-58
2023/03/13 08:50:58;;;;;;;6.50;6.00;;;;;;;;;;5069934;28;20197;-57
2023/03/13 08:53:25;;;;;;;6.57;5.93;;;;;;;;;;5071840;28;20248;-58
2023/03/13 08:55:52;;;;;;;6.60;6.00;;;;;;;;;;5071780;28;20257;-58
2023/03/13 08:58:18;;;;;;;7.03;6.43;;;;;;;;;;5071354;28;20203;-57
2023/03/13 09:00:45;;;;;;;6.60;6.03;;;;;;;;;;5071704;28;20215;-58
2023/03/13 09:03:11;;;;;;;6.30;5.70;;;;;;;;;;5071623;28;20250;-58
2023/03/13 09:05:37;;;;;;;6.53;5.83;;;;;;;;;;5071686;28;20231;-59
2023/03/13 09:08:03;;;;;;;6.93;5.60;;;;;;;;;;5071632;28;20206;-58
2023/03/13 09:10:29;;;;;;;6.10;5.50;;;;;;;;;;5071528;28;20245;-58
2023/03/13 09:12:55;;;;;;;5.70;5.17;;;;;;;;;;5071694;28;20196;-60
2023/03/13 09:15:21;;;;;;;7.97;5.40;;;;;;;;;;5071507;28;20191;-58
2023/03/13 09:17:49;;;;;;;5.40;4.90;;;;;;;;;;5071625;28;20207;-59
2023/03/13 09:20:17;;;;;;;5.10;4.70;;;;;;;;;;5071200;28;20215;-58
2023/03/13 09:22:43;;;;;;;5.57;4.90;;;;;;;;;;5071607;28;20279;-58
2023/03/13 09:25:09;;;;;;;8.13;4.50;;;;;;;;;;5071402;28;20676;-58
2023/03/13 09:27:35;;;;;;;4.30;3.90;;;;;;;;;;5071607;28;20200;-59
2023/03/13 09:30:01;;;;;;;4.43;4.03;;;;;;;;;;5071589;28;20723;-59
2023/03/13 09:32:27;;;;;;;4.03;3.73;;;;;;;;;;5071645;28;20214;-60
2023/03/13 09:34:55;;;;;;;3.93;3.63;;;;;;;;;;5071812;28;20200;-59
2023/03/13 09:37:21;;;;;;;4.70;4.07;;;;;;;;;;5071549;28;20209;-56
2023/03/13 09:39:47;;;;;;;6.10;4.30;;;;;;;;;;5071610;28;20204;-58
2023/03/13 09:42:15;;;;;;;4.40;4.00;;;;;;;;;;5071102;28;20223;-57
2023/03/13 09:44:45;;;;;;;4.97;3.80;;;;;;;;;;5071268;28;20227;-58
2023/03/13 09:47:14;;;;;;;6.17;4.00;;;;;;;;;;5071458;28;20198;-58
2023/03/13 09:49:41;;;;;;;5.20;3.60;;;;;;;;;;5071569;28;20230;-58
2023/03/13 09:52:14;;;;;;;4.23;3.80;;;;;;;;;;5071448;28;20199;-58
2023/03/13 09:54:42;;;;;;;5.07;3.77;;;;;;;;;;5071482;28;20262;-59
2023/03/13 09:57:15;;;;;;;4.77;3.77;;;;;;;;;;5071525;28;20195;-59
2023/03/13 09:59:47;;;;;;;8.70;3.73;;;;;;;;;;5071614;28;20287;-59
2023/03/13 10:02:17;;;;;;;4.67;3.40;;;;;;;;;;5071220;28;20233;-65
2023/03/13 10:04:45;;;;;;;3.50;3.03;;;;;;;;;;5072899;28;20566;-61
2023/03/13 10:07:12;;;;;;;6.07;3.33;;;;;;;;;;5075067;28;20199;-62
2023/03/13 10:09:41;;;;;;;4.53;3.43;;;;;;;;;;5075391;28;20200;-63
2023/03/13 10:12:11;;;;;;;3.30;3.00;;;;;;;;;;5075049;28;20195;-58
2023/03/13 10:14:41;;;;;;;4.63;3.13;;;;;;;;;;5075256;28;20214;-59
2023/03/13 10:17:11;;;;;;;6.10;3.20;;;;;;;;;;5075097;28;20214;-58
2023/03/13 10:19:42;;;;;;;5.43;2.90;;;;;;;;;;5075058;28;20199;-59
2023/03/13 10:22:11;;;;;;;4.77;2.77;;;;;;;;;;5074902;28;20710;-59
2023/03/13 10:24:42;;;;;;;2.87;2.67;;;;;;;;;;5074649;28;20227;-59
2023/03/13 10:27:08;;;;;;;3.60;2.90;;;;;;;;;;5054864;28;20562;-59
2023/03/13 10:29:34;;;;;;;5.07;2.63;;;;;;;;;;5074560;28;20204;-59
2023/03/13 10:32:02;;;;;;;4.67;2.93;;;;;;;;;;5074504;28;20381;-58
2023/03/13 10:34:28;;;;;;;3.97;3.20;;;;;;;;;;5074391;28;20195;-58
2023/03/13 10:36:56;;;;;;;7.50;3.27;;;;;;;;;;5074548;28;20722;-58
2023/03/13 10:39:23;;;;;;;3.60;2.60;;;;;;;;;;5074373;28;20253;-58
2023/03/13 10:41:56;;;;;;;3.27;2.67;;;;;;;;;;5074324;28;20219;-59
2023/03/13 10:44:22;;;;;;;6.47;2.90;;;;;;;;;;5074135;28;20646;-58
2023/03/13 10:46:50;;;;;;;3.57;2.40;;;;;;;;;;5074479;28;20219;-59
2023/03/13 10:49:17;;;;;;;2.83;2.30;;;;;;;;;;5074183;28;20195;-58
2023/03/13 10:51:47;;;;;;;5.03;2.37;;;;;;;;;;5074425;28;20210;-59
2023/03/13 10:54:13;;;;;;;5.37;2.43;;;;;;;;;;5074158;28;20624;-59
2023/03/13 10:56:39;;;;;;;5.43;2.13;;;;;;;;;;5074476;28;20223;-59
2023/03/13 10:59:20;;;;;;;3.40;2.30;;;;;;;;;;5074333;28;20223;-59
2023/03/13 11:01:47;;;;;;;3.67;2.30;;;;;;;;;;5074288;28;20207;-58
2023/03/13 11:04:20;;;;;;;3.23;2.20;;;;;;;;;;5073994;28;20273;-59
2023/03/13 11:06:51;;;;;;;3.30;2.40;;;;;;;;;;5073932;28;20623;-59
2023/03/13 11:09:17;;;;;;;4.80;2.37;;;;;;;;;;5073980;28;20324;-59
2023/03/13 11:11:45;;;;;;;3.07;2.00;;;;;;;;;;5073773;28;20207;-59
2023/03/13 11:14:16;;;;;;;2.07;1.80;;;;;;;;;;5073699;28;20195;-59
2023/03/13 11:16:46;;;;;;;3.97;1.93;;;;;;;;;;5072501;28;20204;-59
2023/03/13 11:19:24;;;;;;;4.57;2.20;;;;;;;;;;5073545;28;20199;-59
2023/03/13 11:21:54;;;;;;;2.10;1.80;;;;;;;;;;5073583;28;20298;-58
2023/03/13 11:24:24;;;;;;;4.37;2.20;;;;;;;;;;5073478;28;20322;-59
2023/03/13 11:26:54;;;;;;;4.50;2.13;;;;;;;;;;5073478;28;20257;-59
2023/03/13 11:29:25;;;;;;;3.10;2.00;;;;;;;;;;5073313;28;20204;-58
2023/03/13 11:31:56;;;;;;;4.93;2.47;;;;;;;;;;5073842;28;20278;-58
2023/03/13 11:34:26;;;;;;;4.53;2.60;;;;;;;;;;5073502;28;20203;-58
2023/03/13 11:36:55;;;;;;;5.17;2.40;;;;;;;;;;5073719;28;20196;-58
2023/03/13 11:39:34;;;;;;;2.27;1.87;;;;;;;;;;5073416;28;20219;-58
2023/03/13 11:42:05;;;;;;;3.23;2.20;;;;;;;;;;5073240;28;20235;-58
2023/03/13 11:44:40;;;;;;;2.73;1.83;;;;;;;;;;5073462;28;20246;-57
2023/03/13 11:47:22;;;;;;;4.83;2.10;;;;;;;;;;5073315;28;20298;-58
2023/03/13 11:50:05;;;;;;;3.47;2.00;;;;;;;;;;5073439;28;20210;-58
2023/03/13 11:52:37;;;;;;;3.77;1.97;;;;;;;;;;5073328;28;20200;-58
2023/03/13 11:55:14;;;;;;;3.77;1.83;;;;;;;;;;5073169;28;20729;-58
2023/03/13 11:57:43;;;;;;;5.03;2.10;;;;;;;;;;5073345;28;20206;-58
2023/03/13 12:00:18;;;;;;;6.73;2.00;;;;;;;;;;5073181;28;20203;-58
2023/03/13 12:02:48;;;;;;;2.70;1.67;;;;;;;;;;5073161;28;20246;-57
2023/03/13 12:05:16;;;;;;;3.93;2.10;;;;;;;;;;5072729;28;20259;-59
2023/03/13 12:07:45;;;;;;;3.23;1.87;;;;;;;;;;5073001;28;20249;-59
2023/03/13 12:10:14;;;;;;;3.03;1.90;;;;;;;;;;5072963;28;20192;-61
2023/03/13 12:12:43;;;;;;;3.60;1.90;;;;;;;;;;5072857;28;20257;-59
2023/03/13 12:15:18;;;;;;;4.27;1.63;;;;;;;;;;5072762;28;20645;-60
2023/03/13 12:17:47;;;;;;;2.47;1.70;;;;;;;;;;5072641;28;20203;-58
2023/03/13 12:20:19;;;;;;;5.27;2.10;;;;;;;;;;5072359;28;20303;-58
2023/03/13 12:22:49;;;;;;;2.93;1.77;;;;;;;;;;5072663;28;20733;-58
2023/03/13 12:25:18;;;;;;;2.53;1.90;;;;;;;;;;5072460;28;20335;-57
2023/03/13 12:27:46;;;;;;;5.13;2.10;;;;;;;;;;5072244;28;20233;-59
2023/03/13 12:30:18;;;;;;;11.07;1.87;;;;;;;;;;5072335;28;20575;-58
2023/03/13 12:32:49;;;;;;;2.93;1.70;;;;;;;;;;5072418;28;20665;-60
2023/03/13 12:35:19;;;;;;;3.63;1.90;;;;;;;;;;5072059;28;20884;-59
2023/03/13 12:37:47;;;;;;;4.00;2.00;;;;;;;;;;5071905;28;20258;-59
2023/03/13 12:40:18;;;;;;;2.30;1.60;;;;;;;;;;5072092;28;20199;-58
2023/03/13 12:42:46;;;;;;;2.93;2.00;;;;;;;;;;5072294;28;20227;-58
2023/03/13 12:45:15;;;;;;;3.83;1.87;;;;;;;;;;5072003;28;20604;-58
2023/03/13 12:47:53;;;;;;;3.17;1.73;;;;;;;;;;5072361;28;20283;-59
2023/03/13 12:50:23;;;;;;;5.50;1.97;;;;;;;;;;5072081;28;20224;-58
2023/03/13 12:53:07;;;;;;;4.00;1.70;;;;;;;;;;5054186;28;20204;-58
2023/03/13 12:55:46;;;;;;;2.17;1.60;;;;;;;;;;5031721;28;20208;-58
2023/03/13 12:58:15;;;;;;;3.43;1.77;;;;;;;;;;5071982;28;20544;-59
2023/03/13 13:00:42;;;;;;;2.37;1.60;;;;;;;;;;5072201;28;20234;-58
2023/03/13 13:03:19;;;;;;;3.10;1.80;;;;;;;;;;5071996;28;20196;-59
2023/03/13 13:05:58;;;;;;;2.80;1.70;;;;;;;;;;5071854;28;20254;-59
2023/03/13 13:08:24;;;;;;;2.87;2.07;;;;;;;;;;5071919;28;20202;-58
2023/03/13 13:10:51;;;;;;;2.63;1.90;;;;;;;;;;5071959;28;20203;-59
2023/03/13 13:13:18;;;;;;;2.17;1.60;;;;;;;;;;5071745;28;20260;-59
2023/03/13 13:15:46;;;;;;;3.17;1.90;;;;;;;;;;5071842;28;20196;-59
2023/03/13 13:18:15;;;;;;;2.47;1.60;;;;;;;;;;5071780;28;20206;-59
2023/03/13 13:20:43;;;;;;;5.77;1.57;;;;;;;;;;5071956;28;20219;-59
2023/03/13 13:23:24;;;;;;;2.53;1.70;;;;;;;;;;5071765;28;20598;-59
2023/03/13 13:25:51;;;;;;;3.60;1.73;;;;;;;;;;5068569;28;20239;-59
2023/03/13 13:28:27;;;;;;;3.43;1.73;;;;;;;;;;5071651;28;20200;-59
2023/03/13 13:30:54;;;;;;;2.63;1.60;;;;;;;;;;5071865;28;20199;-58
2023/03/13 13:33:40;;;;;;;5.13;1.80;;;;;;;;;;5071461;28;20195;-59
2023/03/13 13:36:24;;;;;;;2.70;1.70;;;;;;;;;;5071678;28;20192;-59
2023/03/13 13:38:50;;;;;;;2.07;1.57;;;;;;;;;;5070956;28;20192;-58
2023/03/13 13:41:25;;;;;;;5.77;1.80;;;;;;;;;;5071404;28;20264;-59
2023/03/13 13:44:14;;;;;;;4.33;2.00;;;;;;;;;;5071521;28;20296;-59
2023/03/13 13:46:44;;;;;;;2.17;1.70;;;;;;;;;;5071657;28;20253;-58
2023/03/13 13:49:16;;;;;;;3.77;1.80;;;;;;;;;;5071726;28;20229;-59
2023/03/13 13:52:04;;;;;;;2.50;1.70;;;;;;;;;;5071570;28;20208;-58
2023/03/13 13:54:32;;;;;;;4.07;1.80;;;;;;;;;;5071207;28;20191;-58
2023/03/13 13:56:58;;;;;;;2.73;1.60;;;;;;;;;;5071439;28;20536;-59
2023/03/13 13:59:36;;;;;;;2.33;1.60;;;;;;;;;;5071386;28;20203;-59
2023/03/13 14:02:12;;;;;;;9.13;2.07;;;;;;;;;;5071425;28;20202;-59
2023/03/13 14:04:41;;;;;;;5.17;1.50;;;;;;;;;;5071448;28;20280;-59
2023/03/13 14:10:05;;;;;;;3.07;1.53;;;;;;;;;;5067842;28;20261;-59
2023/03/13 14:12:32;;;;;;;3.17;1.60;;;;;;;;;;5070973;28;20232;-58
2023/03/13 14:15:09;;;;;;;2.70;1.50;;;;;;;;;;5071161;28;20206;-58
2023/03/13 14:17:39;;;;;;;3.80;1.53;;;;;;;;;;5071104;28;20187;-58
2023/03/13 14:20:15;;;;;;;2.83;1.60;;;;;;;;;;5071242;28;20203;-58
2023/03/13 14:22:45;;;;;;;2.97;1.50;;;;;;;;;;5071222;28;20207;-59
2023/03/13 14:25:11;;;;;;;2.13;1.60;;;;;;;;;;5070954;28;20212;-58
2023/03/13 14:27:42;;;;;;;2.60;1.43;;;;;;;;;;5068676;28;20223;-59
2023/03/13 14:30:09;;;;;;;4.10;1.50;;;;;;;;;;5065670;28;20654;-58
2023/03/13 14:32:35;;;;;;;2.33;1.70;;;;;;;;;;5068871;28;20666;-58
2023/03/13 14:35:01;;;;;;;2.80;1.60;;;;;;;;;;5070009;28;20398;-58
2023/03/13 14:37:35;;;;;;;2.00;1.30;;;;;;;;;;5069893;28;20200;-58
2023/03/13 14:40:08;;;;;;;4.03;1.40;;;;;;;;;;5070282;28;20208;-58
2023/03/13 14:42:37;;;;;;;5.93;1.40;;;;;;;;;;5070189;28;20553;-58
2023/03/13 14:45:12;;;;;;;2.47;1.30;;;;;;;;;;5069983;28;20597;-58